sensor_id;sensor_type;location;lat;lon;timestamp;P1;durP1;ratioP1;P2;durP2;ratioP2
67544;SDS011;54380;47.770;11.150;2022-10-31T00:02:03;9.57;;;1.05;;
67544;SDS011;54380;47.770;11.150;2022-10-31T00:04:30;10.20;;;1.23;;
67544;SDS011;54380;47.770;11.150;2022-10-31T00:06:58;14.00;;;1.40;;
67544;SDS011;54380;47.770;11.150;2022-10-31T00:09:24;8.50;;;1.52;;
67544;SDS011;54380;47.770;11.150;2022-10-31T00:11:51;11.00;;;1.80;;
67544;SDS011;54380;47.770;11.150;2022-10-31T00:14:18;12.02;;;1.52;;
67544;SDS011;54380;47.770;11.150;2022-10-31T00:16:44;8.10;;;1.50;;
67544;SDS011;54380;47.770;11.150;2022-10-31T00:19:11;8.93;;;1.00;;
67544;SDS011;54380;47.770;11.150;2022-10-31T00:21:37;16.48;;;1.33;;
67544;SDS011;54380;47.770;11.150;2022-10-31T00:24:06;8.98;;;1.55;;
67544;SDS011;54380;47.770;11.150;2022-10-31T00:26:33;12.38;;;1.35;;
67544;SDS011;54380;47.770;11.150;2022-10-31T00:29:00;9.48;;;1.05;;
67544;SDS011;54380;47.770;11.150;2022-10-31T00:31:27;11.32;;;1.35;;
67544;SDS011;54380;47.770;11.150;2022-10-31T00:33:54;10.10;;;1.40;;
67544;SDS011;54380;47.770;11.150;2022-10-31T00:36:20;11.80;;;1.83;;
67544;SDS011;54380;47.770;11.150;2022-10-31T00:38:47;13.25;;;1.70;;
67544;SDS011;54380;47.770;11.150;2022-10-31T00:41:16;12.20;;;1.25;;
67544;SDS011;54380;47.770;11.150;2022-10-31T00:43:44;9.38;;;1.50;;
67544;SDS011;54380;47.770;11.150;2022-10-31T00:46:11;11.35;;;1.70;;
67544;SDS011;54380;47.770;11.150;2022-10-31T00:48:40;10.80;;;1.25;;
67544;SDS011;54380;47.770;11.150;2022-10-31T00:51:07;7.50;;;1.15;;
67544;SDS011;54380;47.770;11.150;2022-10-31T00:53:34;12.30;;;1.70;;
67544;SDS011;54380;47.770;11.150;2022-10-31T00:56:01;10.32;;;1.17;;
67544;SDS011;54380;47.770;11.150;2022-10-31T00:58:29;8.93;;;1.35;;
67544;SDS011;54380;47.770;11.150;2022-10-31T01:00:56;17.00;;;1.75;;
67544;SDS011;54380;47.770;11.150;2022-10-31T01:03:23;9.45;;;1.27;;
67544;SDS011;54380;47.770;11.150;2022-10-31T01:05:56;13.93;;;1.58;;
67544;SDS011;54380;47.770;11.150;2022-10-31T01:08:23;7.40;;;1.40;;
67544;SDS011;54380;47.770;11.150;2022-10-31T01:10:57;7.28;;;1.15;;
67544;SDS011;54380;47.770;11.150;2022-10-31T01:13:25;7.57;;;0.77;;
67544;SDS011;54380;47.770;11.150;2022-10-31T01:15:54;6.93;;;0.82;;
67544;SDS011;54380;47.770;11.150;2022-10-31T01:18:22;10.07;;;1.33;;
67544;SDS011;54380;47.770;11.150;2022-10-31T01:20:56;9.93;;;1.23;;
67544;SDS011;54380;47.770;11.150;2022-10-31T01:23:24;9.45;;;2.05;;
67544;SDS011;54380;47.770;11.150;2022-10-31T01:25:58;10.98;;;1.05;;
67544;SDS011;54380;47.770;11.150;2022-10-31T01:28:26;8.60;;;1.40;;
67544;SDS011;54380;47.770;11.150;2022-10-31T01:30:52;7.68;;;0.95;;
67544;SDS011;54380;47.770;11.150;2022-10-31T01:33:20;8.93;;;1.15;;
67544;SDS011;54380;47.770;11.150;2022-10-31T01:35:47;9.68;;;1.13;;
67544;SDS011;54380;47.770;11.150;2022-10-31T01:38:13;8.60;;;1.60;;
67544;SDS011;54380;47.770;11.150;2022-10-31T01:40:40;8.25;;;1.20;;
67544;SDS011;54380;47.770;11.150;2022-10-31T01:43:09;11.23;;;1.58;;
67544;SDS011;54380;47.770;11.150;2022-10-31T01:45:38;9.55;;;1.42;;
67544;SDS011;54380;47.770;11.150;2022-10-31T01:48:07;15.18;;;1.30;;
67544;SDS011;54380;47.770;11.150;2022-10-31T01:50:41;7.85;;;1.55;;
67544;SDS011;54380;47.770;11.150;2022-10-31T01:53:11;9.32;;;1.50;;
67544;SDS011;54380;47.770;11.150;2022-10-31T01:55:39;9.43;;;1.10;;
67544;SDS011;54380;47.770;11.150;2022-10-31T01:58:08;11.05;;;1.10;;
67544;SDS011;54380;47.770;11.150;2022-10-31T02:00:38;8.45;;;1.15;;
67544;SDS011;54380;47.770;11.150;2022-10-31T02:03:05;11.00;;;1.17;;
67544;SDS011;54380;47.770;11.150;2022-10-31T02:05:32;10.35;;;1.42;;
67544;SDS011;54380;47.770;11.150;2022-10-31T02:08:01;8.70;;;0.88;;
67544;SDS011;54380;47.770;11.150;2022-10-31T02:10:31;8.23;;;1.13;;
67544;SDS011;54380;47.770;11.150;2022-10-31T02:12:59;9.40;;;1.13;;
67544;SDS011;54380;47.770;11.150;2022-10-31T02:15:29;11.43;;;1.30;;
67544;SDS011;54380;47.770;11.150;2022-10-31T02:17:58;8.55;;;1.45;;
67544;SDS011;54380;47.770;11.150;2022-10-31T02:20:27;8.80;;;1.33;;
67544;SDS011;54380;47.770;11.150;2022-10-31T02:23:06;10.45;;;1.02;;
67544;SDS011;54380;47.770;11.150;2022-10-31T02:29:27;7.40;;;0.85;;
67544;SDS011;54380;47.770;11.150;2022-10-31T02:32:15;11.00;;;1.20;;
67544;SDS011;54380;47.770;11.150;2022-10-31T02:34:50;11.40;;;1.23;;
67544;SDS011;54380;47.770;11.150;2022-10-31T02:37:24;9.55;;;1.30;;
67544;SDS011;54380;47.770;11.150;2022-10-31T02:39:59;7.13;;;0.85;;
67544;SDS011;54380;47.770;11.150;2022-10-31T02:42:55;9.95;;;1.02;;
67544;SDS011;54380;47.770;11.150;2022-10-31T02:45:29;9.73;;;1.00;;
67544;SDS011;54380;47.770;11.150;2022-10-31T02:48:03;12.80;;;1.20;;
67544;SDS011;54380;47.770;11.150;2022-10-31T02:50:37;7.38;;;0.77;;
67544;SDS011;54380;47.770;11.150;2022-10-31T02:53:08;8.80;;;1.15;;
67544;SDS011;54380;47.770;11.150;2022-10-31T02:58:26;7.70;;;1.17;;
67544;SDS011;54380;47.770;11.150;2022-10-31T03:01:06;9.65;;;1.00;;
67544;SDS011;54380;47.770;11.150;2022-10-31T03:03:52;9.10;;;0.82;;
67544;SDS011;54380;47.770;11.150;2022-10-31T03:06:29;7.32;;;0.80;;
67544;SDS011;54380;47.770;11.150;2022-10-31T03:09:00;7.53;;;0.93;;
67544;SDS011;54380;47.770;11.150;2022-10-31T03:11:40;6.20;;;0.93;;
67544;SDS011;54380;47.770;11.150;2022-10-31T03:14:12;9.38;;;1.20;;
67544;SDS011;54380;47.770;11.150;2022-10-31T03:16:45;8.27;;;0.82;;
67544;SDS011;54380;47.770;11.150;2022-10-31T03:21:45;9.05;;;1.27;;
67544;SDS011;54380;47.770;11.150;2022-10-31T03:24:15;7.10;;;0.65;;
67544;SDS011;54380;47.770;11.150;2022-10-31T03:26:43;5.60;;;1.00;;
67544;SDS011;54380;47.770;11.150;2022-10-31T03:29:15;8.20;;;1.40;;
67544;SDS011;54380;47.770;11.150;2022-10-31T03:31:46;9.18;;;0.98;;
67544;SDS011;54380;47.770;11.150;2022-10-31T03:34:21;10.27;;;1.25;;
67544;SDS011;54380;47.770;11.150;2022-10-31T03:36:49;6.40;;;0.75;;
67544;SDS011;54380;47.770;11.150;2022-10-31T03:39:18;8.88;;;1.05;;
67544;SDS011;54380;47.770;11.150;2022-10-31T03:41:50;9.25;;;0.98;;
67544;SDS011;54380;47.770;11.150;2022-10-31T03:44:24;11.15;;;1.08;;
67544;SDS011;54380;47.770;11.150;2022-10-31T03:47:00;11.00;;;1.25;;
67544;SDS011;54380;47.770;11.150;2022-10-31T03:49:31;6.15;;;1.02;;
67544;SDS011;54380;47.770;11.150;2022-10-31T03:52:00;9.82;;;1.17;;
67544;SDS011;54380;47.770;11.150;2022-10-31T03:54:36;9.20;;;1.27;;
67544;SDS011;54380;47.770;11.150;2022-10-31T03:57:08;9.32;;;1.05;;
67544;SDS011;54380;47.770;11.150;2022-10-31T03:59:43;11.13;;;1.20;;
67544;SDS011;54380;47.770;11.150;2022-10-31T04:02:14;6.18;;;1.25;;
67544;SDS011;54380;47.770;11.150;2022-10-31T04:04:45;7.40;;;0.93;;
67544;SDS011;54380;47.770;11.150;2022-10-31T04:07:14;12.52;;;1.25;;
67544;SDS011;54380;47.770;11.150;2022-10-31T04:09:43;7.68;;;0.85;;
67544;SDS011;54380;47.770;11.150;2022-10-31T04:12:12;7.60;;;0.85;;
67544;SDS011;54380;47.770;11.150;2022-10-31T04:15:08;8.57;;;0.93;;
67544;SDS011;54380;47.770;11.150;2022-10-31T04:17:39;7.88;;;1.45;;
67544;SDS011;54380;47.770;11.150;2022-10-31T04:20:10;8.48;;;1.17;;
67544;SDS011;54380;47.770;11.150;2022-10-31T04:22:38;4.30;;;0.85;;
67544;SDS011;54380;47.770;11.150;2022-10-31T04:25:05;9.85;;;0.75;;
67544;SDS011;54380;47.770;11.150;2022-10-31T04:27:33;7.38;;;1.08;;
67544;SDS011;54380;47.770;11.150;2022-10-31T04:29:59;8.27;;;1.10;;
67544;SDS011;54380;47.770;11.150;2022-10-31T04:32:27;9.45;;;1.30;;
67544;SDS011;54380;47.770;11.150;2022-10-31T04:34:54;6.45;;;1.00;;
67544;SDS011;54380;47.770;11.150;2022-10-31T04:37:22;7.72;;;1.02;;
67544;SDS011;54380;47.770;11.150;2022-10-31T04:39:48;6.20;;;1.15;;
67544;SDS011;54380;47.770;11.150;2022-10-31T04:42:34;10.02;;;1.25;;
67544;SDS011;54380;47.770;11.150;2022-10-31T04:45:03;11.70;;;1.15;;
67544;SDS011;54380;47.770;11.150;2022-10-31T04:47:31;7.28;;;0.93;;
67544;SDS011;54380;47.770;11.150;2022-10-31T04:50:00;8.20;;;0.75;;
67544;SDS011;54380;47.770;11.150;2022-10-31T04:52:28;9.55;;;1.35;;
67544;SDS011;54380;47.770;11.150;2022-10-31T04:54:55;7.35;;;0.73;;
67544;SDS011;54380;47.770;11.150;2022-10-31T04:57:52;5.68;;;0.80;;
67544;SDS011;54380;47.770;11.150;2022-10-31T05:00:20;7.60;;;0.93;;
67544;SDS011;54380;47.770;11.150;2022-10-31T05:02:49;10.65;;;0.88;;
67544;SDS011;54380;47.770;11.150;2022-10-31T05:05:18;9.45;;;0.70;;
67544;SDS011;54380;47.770;11.150;2022-10-31T05:07:47;7.60;;;1.05;;
67544;SDS011;54380;47.770;11.150;2022-10-31T05:10:18;8.70;;;1.67;;
67544;SDS011;54380;47.770;11.150;2022-10-31T05:12:47;9.48;;;1.95;;
67544;SDS011;54380;47.770;11.150;2022-10-31T05:15:41;12.35;;;1.42;;
67544;SDS011;54380;47.770;11.150;2022-10-31T05:18:14;8.15;;;1.33;;
67544;SDS011;54380;47.770;11.150;2022-10-31T05:21:03;8.30;;;1.25;;
67544;SDS011;54380;47.770;11.150;2022-10-31T05:23:35;8.20;;;0.82;;
67544;SDS011;54380;47.770;11.150;2022-10-31T05:26:04;12.82;;;1.17;;
67544;SDS011;54380;47.770;11.150;2022-10-31T05:28:32;11.38;;;1.15;;
67544;SDS011;54380;47.770;11.150;2022-10-31T05:30:59;12.85;;;3.20;;
67544;SDS011;54380;47.770;11.150;2022-10-31T05:33:26;9.88;;;1.55;;
67544;SDS011;54380;47.770;11.150;2022-10-31T05:36:11;11.68;;;1.52;;
67544;SDS011;54380;47.770;11.150;2022-10-31T05:38:49;9.13;;;1.70;;
67544;SDS011;54380;47.770;11.150;2022-10-31T05:41:22;11.68;;;1.65;;
67544;SDS011;54380;47.770;11.150;2022-10-31T05:43:50;9.02;;;1.08;;
67544;SDS011;54380;47.770;11.150;2022-10-31T05:46:21;8.43;;;1.40;;
67544;SDS011;54380;47.770;11.150;2022-10-31T05:49:06;11.70;;;1.25;;
67544;SDS011;54380;47.770;11.150;2022-10-31T05:51:52;9.00;;;1.35;;
67544;SDS011;54380;47.770;11.150;2022-10-31T05:54:25;10.68;;;2.15;;
67544;SDS011;54380;47.770;11.150;2022-10-31T05:56:52;11.93;;;2.05;;
67544;SDS011;54380;47.770;11.150;2022-10-31T05:59:19;10.07;;;1.48;;
67544;SDS011;54380;47.770;11.150;2022-10-31T06:01:46;12.90;;;1.38;;
67544;SDS011;54380;47.770;11.150;2022-10-31T06:04:29;13.93;;;2.33;;
67544;SDS011;54380;47.770;11.150;2022-10-31T06:06:57;11.10;;;1.85;;
67544;SDS011;54380;47.770;11.150;2022-10-31T06:09:25;11.55;;;2.40;;
67544;SDS011;54380;47.770;11.150;2022-10-31T06:11:52;11.27;;;1.92;;
67544;SDS011;54380;47.770;11.150;2022-10-31T06:14:24;11.50;;;1.42;;
67544;SDS011;54380;47.770;11.150;2022-10-31T06:16:53;10.57;;;1.92;;
67544;SDS011;54380;47.770;11.150;2022-10-31T06:19:55;13.25;;;2.10;;
67544;SDS011;54380;47.770;11.150;2022-10-31T06:22:25;12.25;;;2.22;;
67544;SDS011;54380;47.770;11.150;2022-10-31T06:24:54;11.50;;;2.42;;
67544;SDS011;54380;47.770;11.150;2022-10-31T06:27:26;12.50;;;2.17;;
67544;SDS011;54380;47.770;11.150;2022-10-31T06:29:54;11.68;;;1.77;;
67544;SDS011;54380;47.770;11.150;2022-10-31T06:34:57;9.15;;;1.88;;
67544;SDS011;54380;47.770;11.150;2022-10-31T06:37:24;13.50;;;1.73;;
67544;SDS011;54380;47.770;11.150;2022-10-31T06:39:54;10.30;;;1.90;;
67544;SDS011;54380;47.770;11.150;2022-10-31T06:42:21;10.07;;;1.73;;
67544;SDS011;54380;47.770;11.150;2022-10-31T06:44:48;13.35;;;2.63;;
67544;SDS011;54380;47.770;11.150;2022-10-31T06:47:33;13.00;;;2.53;;
67544;SDS011;54380;47.770;11.150;2022-10-31T06:50:16;10.55;;;1.90;;
67544;SDS011;54380;47.770;11.150;2022-10-31T06:52:49;11.82;;;2.30;;
67544;SDS011;54380;47.770;11.150;2022-10-31T06:55:17;13.05;;;2.22;;
67544;SDS011;54380;47.770;11.150;2022-10-31T06:57:48;12.27;;;3.35;;
67544;SDS011;54380;47.770;11.150;2022-10-31T07:00:16;11.27;;;2.20;;
67544;SDS011;54380;47.770;11.150;2022-10-31T07:02:52;17.40;;;3.72;;
67544;SDS011;54380;47.770;11.150;2022-10-31T07:05:22;21.30;;;10.38;;
67544;SDS011;54380;47.770;11.150;2022-10-31T07:07:51;15.13;;;5.47;;
67544;SDS011;54380;47.770;11.150;2022-10-31T07:10:22;17.05;;;4.63;;
67544;SDS011;54380;47.770;11.150;2022-10-31T07:12:56;13.93;;;3.25;;
67544;SDS011;54380;47.770;11.150;2022-10-31T07:15:24;14.52;;;2.60;;
67544;SDS011;54380;47.770;11.150;2022-10-31T07:17:51;10.60;;;2.25;;
67544;SDS011;54380;47.770;11.150;2022-10-31T07:20:18;14.13;;;2.55;;
67544;SDS011;54380;47.770;11.150;2022-10-31T07:22:46;14.43;;;2.60;;
67544;SDS011;54380;47.770;11.150;2022-10-31T07:25:16;10.68;;;2.50;;
67544;SDS011;54380;47.770;11.150;2022-10-31T07:28:06;12.70;;;2.72;;
67544;SDS011;54380;47.770;11.150;2022-10-31T07:30:34;17.33;;;3.20;;
67544;SDS011;54380;47.770;11.150;2022-10-31T07:33:00;16.63;;;3.20;;
67544;SDS011;54380;47.770;11.150;2022-10-31T07:35:59;19.58;;;3.63;;
67544;SDS011;54380;47.770;11.150;2022-10-31T07:38:29;12.63;;;2.80;;
67544;SDS011;54380;47.770;11.150;2022-10-31T07:40:58;12.85;;;3.03;;
67544;SDS011;54380;47.770;11.150;2022-10-31T07:43:28;12.90;;;2.90;;
67544;SDS011;54380;47.770;11.150;2022-10-31T07:46:14;9.98;;;2.15;;
67544;SDS011;54380;47.770;11.150;2022-10-31T07:48:59;15.27;;;3.65;;
67544;SDS011;54380;47.770;11.150;2022-10-31T07:51:44;12.93;;;3.17;;
67544;SDS011;54380;47.770;11.150;2022-10-31T07:54:30;14.57;;;2.30;;
67544;SDS011;54380;47.770;11.150;2022-10-31T07:56:57;15.10;;;3.28;;
67544;SDS011;54380;47.770;11.150;2022-10-31T07:59:25;14.98;;;3.28;;
67544;SDS011;54380;47.770;11.150;2022-10-31T08:01:53;26.52;;;8.65;;
67544;SDS011;54380;47.770;11.150;2022-10-31T08:04:29;21.67;;;4.43;;
67544;SDS011;54380;47.770;11.150;2022-10-31T08:07:14;13.85;;;4.07;;
67544;SDS011;54380;47.770;11.150;2022-10-31T08:09:47;19.38;;;7.22;;
67544;SDS011;54380;47.770;11.150;2022-10-31T08:12:19;24.65;;;11.65;;
67544;SDS011;54380;47.770;11.150;2022-10-31T08:14:47;22.38;;;8.88;;
67544;SDS011;54380;47.770;11.150;2022-10-31T08:17:16;14.32;;;3.65;;
67544;SDS011;54380;47.770;11.150;2022-10-31T08:19:54;19.67;;;3.95;;
67544;SDS011;54380;47.770;11.150;2022-10-31T08:22:27;17.00;;;3.30;;
67544;SDS011;54380;47.770;11.150;2022-10-31T08:24:53;13.23;;;2.25;;
67544;SDS011;54380;47.770;11.150;2022-10-31T08:27:20;11.68;;;2.33;;
67544;SDS011;54380;47.770;11.150;2022-10-31T08:29:49;14.82;;;2.85;;
67544;SDS011;54380;47.770;11.150;2022-10-31T08:32:15;13.55;;;2.40;;
67544;SDS011;54380;47.770;11.150;2022-10-31T08:35:00;11.60;;;1.90;;
67544;SDS011;54380;47.770;11.150;2022-10-31T08:37:36;10.27;;;1.80;;
67544;SDS011;54380;47.770;11.150;2022-10-31T08:40:04;15.18;;;2.28;;
67544;SDS011;54380;47.770;11.150;2022-10-31T08:42:33;10.80;;;1.85;;
67544;SDS011;54380;47.770;11.150;2022-10-31T08:45:02;10.20;;;2.10;;
67544;SDS011;54380;47.770;11.150;2022-10-31T08:47:31;11.45;;;1.75;;
67544;SDS011;54380;47.770;11.150;2022-10-31T08:49:58;11.68;;;1.52;;
67544;SDS011;54380;47.770;11.150;2022-10-31T08:52:24;9.23;;;1.63;;
67544;SDS011;54380;47.770;11.150;2022-10-31T08:55:12;10.52;;;1.80;;
67544;SDS011;54380;47.770;11.150;2022-10-31T08:58:00;9.55;;;1.65;;
67544;SDS011;54380;47.770;11.150;2022-10-31T09:00:38;9.50;;;1.55;;
67544;SDS011;54380;47.770;11.150;2022-10-31T09:03:13;12.30;;;1.70;;
67544;SDS011;54380;47.770;11.150;2022-10-31T09:05:41;10.20;;;1.75;;
67544;SDS011;54380;47.770;11.150;2022-10-31T09:10:43;13.63;;;1.75;;
67544;SDS011;54380;47.770;11.150;2022-10-31T09:13:14;12.02;;;1.85;;
67544;SDS011;54380;47.770;11.150;2022-10-31T09:16:02;11.65;;;1.40;;
67544;SDS011;54380;47.770;11.150;2022-10-31T09:18:30;13.50;;;1.77;;
67544;SDS011;54380;47.770;11.150;2022-10-31T09:20:58;12.20;;;1.35;;
67544;SDS011;54380;47.770;11.150;2022-10-31T09:23:28;13.48;;;1.67;;
67544;SDS011;54380;47.770;11.150;2022-10-31T09:25:55;8.60;;;1.55;;
67544;SDS011;54380;47.770;11.150;2022-10-31T09:28:33;11.43;;;1.20;;
67544;SDS011;54380;47.770;11.150;2022-10-31T09:31:06;16.25;;;1.90;;
67544;SDS011;54380;47.770;11.150;2022-10-31T09:33:56;13.38;;;1.52;;
67544;SDS011;54380;47.770;11.150;2022-10-31T09:36:35;13.50;;;1.45;;
67544;SDS011;54380;47.770;11.150;2022-10-31T09:39:03;12.98;;;1.38;;
67544;SDS011;54380;47.770;11.150;2022-10-31T09:41:35;11.48;;;1.08;;
67544;SDS011;54380;47.770;11.150;2022-10-31T09:44:26;9.30;;;1.23;;
67544;SDS011;54380;47.770;11.150;2022-10-31T09:49:37;8.05;;;1.13;;
67544;SDS011;54380;47.770;11.150;2022-10-31T09:52:18;10.75;;;1.48;;
67544;SDS011;54380;47.770;11.150;2022-10-31T09:54:50;8.30;;;1.08;;
67544;SDS011;54380;47.770;11.150;2022-10-31T09:57:22;9.93;;;1.25;;
67544;SDS011;54380;47.770;11.150;2022-10-31T09:59:52;11.43;;;1.20;;
67544;SDS011;54380;47.770;11.150;2022-10-31T10:02:24;10.00;;;1.23;;
67544;SDS011;54380;47.770;11.150;2022-10-31T10:04:55;8.52;;;1.10;;
67544;SDS011;54380;47.770;11.150;2022-10-31T10:07:27;14.13;;;1.20;;
67544;SDS011;54380;47.770;11.150;2022-10-31T10:10:36;9.90;;;0.95;;
67544;SDS011;54380;47.770;11.150;2022-10-31T10:13:37;7.40;;;0.70;;
67544;SDS011;54380;47.770;11.150;2022-10-31T10:16:16;7.82;;;1.20;;
67544;SDS011;54380;47.770;11.150;2022-10-31T10:18:56;9.40;;;1.10;;
67544;SDS011;54380;47.770;11.150;2022-10-31T10:21:33;8.98;;;0.88;;
67544;SDS011;54380;47.770;11.150;2022-10-31T10:24:10;12.05;;;1.13;;
67544;SDS011;54380;47.770;11.150;2022-10-31T10:26:46;13.55;;;1.20;;
67544;SDS011;54380;47.770;11.150;2022-10-31T10:29:27;12.63;;;1.80;;
67544;SDS011;54380;47.770;11.150;2022-10-31T10:31:58;11.63;;;1.42;;
67544;SDS011;54380;47.770;11.150;2022-10-31T10:34:29;9.63;;;1.40;;
67544;SDS011;54380;47.770;11.150;2022-10-31T10:37:01;8.45;;;0.90;;
67544;SDS011;54380;47.770;11.150;2022-10-31T10:39:32;9.20;;;0.85;;
67544;SDS011;54380;47.770;11.150;2022-10-31T10:42:04;11.52;;;1.38;;
67544;SDS011;54380;47.770;11.150;2022-10-31T10:44:55;8.38;;;0.70;;
67544;SDS011;54380;47.770;11.150;2022-10-31T10:47:41;9.48;;;1.05;;
67544;SDS011;54380;47.770;11.150;2022-10-31T10:50:13;11.55;;;1.38;;
67544;SDS011;54380;47.770;11.150;2022-10-31T10:52:46;10.45;;;0.90;;
67544;SDS011;54380;47.770;11.150;2022-10-31T10:55:24;6.50;;;1.13;;
67544;SDS011;54380;47.770;11.150;2022-10-31T10:58:00;16.30;;;1.17;;
67544;SDS011;54380;47.770;11.150;2022-10-31T11:00:30;9.98;;;1.25;;
67544;SDS011;54380;47.770;11.150;2022-10-31T11:02:58;8.48;;;1.08;;
67544;SDS011;54380;47.770;11.150;2022-10-31T11:05:28;14.05;;;1.50;;
67544;SDS011;54380;47.770;11.150;2022-10-31T11:07:59;10.40;;;1.27;;
67544;SDS011;54380;47.770;11.150;2022-10-31T11:10:26;8.18;;;1.50;;
67544;SDS011;54380;47.770;11.150;2022-10-31T11:13:01;9.52;;;0.90;;
67544;SDS011;54380;47.770;11.150;2022-10-31T11:15:31;10.57;;;0.93;;
67544;SDS011;54380;47.770;11.150;2022-10-31T11:18:01;7.53;;;0.82;;
67544;SDS011;54380;47.770;11.150;2022-10-31T11:20:33;11.90;;;0.95;;
67544;SDS011;54380;47.770;11.150;2022-10-31T11:23:03;7.85;;;1.00;;
67544;SDS011;54380;47.770;11.150;2022-10-31T11:25:47;10.90;;;0.95;;
67544;SDS011;54380;47.770;11.150;2022-10-31T11:28:16;11.35;;;1.20;;
67544;SDS011;54380;47.770;11.150;2022-10-31T11:30:43;13.68;;;0.82;;
67544;SDS011;54380;47.770;11.150;2022-10-31T11:33:14;9.00;;;1.35;;
67544;SDS011;54380;47.770;11.150;2022-10-31T11:35:54;14.32;;;1.00;;
67544;SDS011;54380;47.770;11.150;2022-10-31T11:38:24;9.48;;;1.10;;
67544;SDS011;54380;47.770;11.150;2022-10-31T11:40:57;11.60;;;1.30;;
67544;SDS011;54380;47.770;11.150;2022-10-31T11:43:30;7.13;;;1.02;;
67544;SDS011;54380;47.770;11.150;2022-10-31T11:45:57;8.40;;;1.05;;
67544;SDS011;54380;47.770;11.150;2022-10-31T11:48:25;10.43;;;1.33;;
67544;SDS011;54380;47.770;11.150;2022-10-31T11:53:28;7.22;;;1.13;;
67544;SDS011;54380;47.770;11.150;2022-10-31T11:56:04;13.02;;;1.23;;
67544;SDS011;54380;47.770;11.150;2022-10-31T11:58:56;10.35;;;0.90;;
67544;SDS011;54380;47.770;11.150;2022-10-31T12:01:26;10.35;;;1.25;;
67544;SDS011;54380;47.770;11.150;2022-10-31T12:03:57;11.70;;;1.40;;
67544;SDS011;54380;47.770;11.150;2022-10-31T12:06:33;8.82;;;1.27;;
67544;SDS011;54380;47.770;11.150;2022-10-31T12:09:19;6.18;;;0.80;;
67544;SDS011;54380;47.770;11.150;2022-10-31T12:11:52;7.75;;;1.02;;
67544;SDS011;54380;47.770;11.150;2022-10-31T12:14:53;13.15;;;1.33;;
67544;SDS011;54380;47.770;11.150;2022-10-31T12:17:29;9.80;;;1.73;;
67544;SDS011;54380;47.770;11.150;2022-10-31T12:20:08;13.15;;;2.05;;
67544;SDS011;54380;47.770;11.150;2022-10-31T12:22:55;16.20;;;1.25;;
67544;SDS011;54380;47.770;11.150;2022-10-31T12:25:32;10.60;;;0.90;;
67544;SDS011;54380;47.770;11.150;2022-10-31T12:28:10;10.65;;;1.20;;
67544;SDS011;54380;47.770;11.150;2022-10-31T12:33:24;11.45;;;1.15;;
67544;SDS011;54380;47.770;11.150;2022-10-31T12:36:11;11.10;;;1.85;;
67544;SDS011;54380;47.770;11.150;2022-10-31T12:38:58;13.13;;;1.45;;
67544;SDS011;54380;47.770;11.150;2022-10-31T12:41:37;9.05;;;1.30;;
67544;SDS011;54380;47.770;11.150;2022-10-31T12:44:15;9.07;;;1.15;;
67544;SDS011;54380;47.770;11.150;2022-10-31T12:47:08;13.85;;;1.95;;
67544;SDS011;54380;47.770;11.150;2022-10-31T12:49:50;18.85;;;1.35;;
67544;SDS011;54380;47.770;11.150;2022-10-31T12:52:30;7.97;;;0.98;;
67544;SDS011;54380;47.770;11.150;2022-10-31T12:55:19;9.68;;;1.15;;
67544;SDS011;54380;47.770;11.150;2022-10-31T12:58:02;14.73;;;1.70;;
67544;SDS011;54380;47.770;11.150;2022-10-31T13:00:35;14.43;;;1.10;;
67544;SDS011;54380;47.770;11.150;2022-10-31T13:03:12;16.15;;;1.42;;
67544;SDS011;54380;47.770;11.150;2022-10-31T13:05:46;8.38;;;0.82;;
67544;SDS011;54380;47.770;11.150;2022-10-31T13:08:16;8.20;;;1.23;;
67544;SDS011;54380;47.770;11.150;2022-10-31T13:10:47;12.35;;;1.08;;
67544;SDS011;54380;47.770;11.150;2022-10-31T13:13:19;9.05;;;1.15;;
67544;SDS011;54380;47.770;11.150;2022-10-31T13:15:50;10.30;;;1.20;;
67544;SDS011;54380;47.770;11.150;2022-10-31T13:18:22;8.90;;;0.80;;
67544;SDS011;54380;47.770;11.150;2022-10-31T13:20:54;8.82;;;1.02;;
67544;SDS011;54380;47.770;11.150;2022-10-31T13:23:29;8.27;;;1.08;;
67544;SDS011;54380;47.770;11.150;2022-10-31T13:28:57;13.82;;;1.30;;
67544;SDS011;54380;47.770;11.150;2022-10-31T13:31:29;13.77;;;1.55;;
67544;SDS011;54380;47.770;11.150;2022-10-31T13:33:57;8.65;;;1.30;;
67544;SDS011;54380;47.770;11.150;2022-10-31T13:36:29;11.63;;;1.58;;
67544;SDS011;54380;47.770;11.150;2022-10-31T13:39:02;12.38;;;1.95;;
67544;SDS011;54380;47.770;11.150;2022-10-31T13:41:44;8.52;;;1.20;;
67544;SDS011;54380;47.770;11.150;2022-10-31T13:44:15;10.23;;;1.58;;
67544;SDS011;54380;47.770;11.150;2022-10-31T13:46:45;12.93;;;1.83;;
67544;SDS011;54380;47.770;11.150;2022-10-31T13:49:25;9.77;;;1.30;;
67544;SDS011;54380;47.770;11.150;2022-10-31T13:52:12;11.20;;;0.90;;
67544;SDS011;54380;47.770;11.150;2022-10-31T13:54:41;12.00;;;1.88;;
67544;SDS011;54380;47.770;11.150;2022-10-31T13:57:15;8.52;;;1.13;;
67544;SDS011;54380;47.770;11.150;2022-10-31T13:59:47;6.93;;;0.80;;
67544;SDS011;54380;47.770;11.150;2022-10-31T14:02:17;9.52;;;2.10;;
67544;SDS011;54380;47.770;11.150;2022-10-31T14:04:53;11.57;;;1.45;;
67544;SDS011;54380;47.770;11.150;2022-10-31T14:07:24;9.25;;;1.23;;
67544;SDS011;54380;47.770;11.150;2022-10-31T14:09:53;11.95;;;1.60;;
67544;SDS011;54380;47.770;11.150;2022-10-31T14:12:25;10.93;;;0.80;;
67544;SDS011;54380;47.770;11.150;2022-10-31T14:14:56;7.72;;;0.95;;
67544;SDS011;54380;47.770;11.150;2022-10-31T14:17:26;15.10;;;1.40;;
67544;SDS011;54380;47.770;11.150;2022-10-31T14:20:00;9.65;;;1.40;;
67544;SDS011;54380;47.770;11.150;2022-10-31T14:22:30;8.85;;;0.75;;
67544;SDS011;54380;47.770;11.150;2022-10-31T14:24:58;9.93;;;1.02;;
67544;SDS011;54380;47.770;11.150;2022-10-31T14:27:42;9.52;;;1.27;;
67544;SDS011;54380;47.770;11.150;2022-10-31T14:30:15;12.07;;;2.58;;
67544;SDS011;54380;47.770;11.150;2022-10-31T14:32:44;12.75;;;1.38;;
67544;SDS011;54380;47.770;11.150;2022-10-31T14:35:17;7.75;;;0.93;;
67544;SDS011;54380;47.770;11.150;2022-10-31T14:41:00;9.60;;;1.10;;
67544;SDS011;54380;47.770;11.150;2022-10-31T14:43:52;11.15;;;1.33;;
67544;SDS011;54380;47.770;11.150;2022-10-31T14:46:53;10.32;;;0.90;;
67544;SDS011;54380;47.770;11.150;2022-10-31T14:49:32;9.77;;;1.05;;
67544;SDS011;54380;47.770;11.150;2022-10-31T14:52:12;10.95;;;0.93;;
67544;SDS011;54380;47.770;11.150;2022-10-31T14:54:44;9.05;;;1.02;;
67544;SDS011;54380;47.770;11.150;2022-10-31T14:57:20;10.88;;;1.02;;
67544;SDS011;54380;47.770;11.150;2022-10-31T14:59:55;9.32;;;1.13;;
67544;SDS011;54380;47.770;11.150;2022-10-31T15:02:30;8.07;;;1.02;;
67544;SDS011;54380;47.770;11.150;2022-10-31T15:05:16;13.68;;;1.30;;
67544;SDS011;54380;47.770;11.150;2022-10-31T15:07:51;9.63;;;1.10;;
67544;SDS011;54380;47.770;11.150;2022-10-31T15:10:20;11.57;;;1.38;;
67544;SDS011;54380;47.770;11.150;2022-10-31T15:12:49;11.70;;;1.38;;
67544;SDS011;54380;47.770;11.150;2022-10-31T15:15:20;11.55;;;1.25;;
67544;SDS011;54380;47.770;11.150;2022-10-31T15:17:49;14.32;;;1.45;;
67544;SDS011;54380;47.770;11.150;2022-10-31T15:20:19;12.43;;;1.02;;
67544;SDS011;54380;47.770;11.150;2022-10-31T15:22:50;9.95;;;1.27;;
67544;SDS011;54380;47.770;11.150;2022-10-31T15:25:18;12.63;;;1.30;;
67544;SDS011;54380;47.770;11.150;2022-10-31T15:27:47;10.98;;;1.60;;
67544;SDS011;54380;47.770;11.150;2022-10-31T15:30:16;11.07;;;1.10;;
67544;SDS011;54380;47.770;11.150;2022-10-31T15:32:50;10.75;;;1.65;;